Saturday, May 26, 2018, 10:08 AM GMT
Back to Local

CYCX, Gagetown Can-Mil

Location: , , Canada Lat: 45.833
Local Time: 10:08 AM GMT (10:08 GMT) Lon: -66.433
Time Zone: GMT Elev: 167 ft

Show me the last for .
Show Decoded

2018-05-26 09:00 METAR CYCX 260900Z 02007KT 360V060 1 1/2SM -SHRA BR OVC001 13/13 A2958 RMK SF8
                 DA554FT SLP019 =
2018-05-26 08:31 METAR CYCX 260831Z 03004KT 1/2SM -SHRA FG VV001 15/15 A2957 RMK FG8 DA764FT
                 SLP014 =
2018-05-26 08:00 METAR CYCX 260800Z 07004KT 020V110 1/2SM FG VV001 15/15 A2955 RMK FG8 DA787FT
                 SLP008 =
2018-05-26 07:42 METAR CYCX 260742Z 03005KT 010V090 1/2SM FG VV001 14/14 A2956 RMK FG8 DA736FT
                 SLP009 =
2018-05-26 07:00 METAR CYCX 260700Z 23003KT 3SM BR OVC130 15/15 A2955 RMK AC8 DA840FT SLP005 =
2018-05-26 06:30 METAR CYCX 260630Z 17002KT 1/2SM FG VV001 14/14 A2955 RMK FG8 DA774FT SLP005 =
2018-05-26 06:00 METAR CYCX 260600Z 20002KT 2SM BR OVC039 14/14 A2957 RMK SC8 DA724FT VIS VRB 1-3
                 SLP013 =
2018-05-26 05:28 METAR CYCX 260528Z 00000KT 2SM BR OVC039 15/15 A2957 RMK SC8 DA764FT VIS VRB 1-3
                 SLP015 =
2018-05-26 05:06 METAR CYCX 260506Z 20003KT 2SM -SHRA BR OVC053 15/15 A2957 RMK SC8 DA804FT VIS
                 VRB 1-3 SLP014 =
2018-05-26 05:00 METAR CYCX 260500Z 19004KT 2SM BR OVC053 15/15 A2957 RMK SC8 DA790FT VIS VRB 1-3
                 SLP013 =
2018-05-26 04:24 METAR CYCX 260424Z 14004KT 2SM BR OVC053 14/14 A2957 RMK SC8 DA751FT VIS VRB 1-3
                 SLP015 =
2018-05-26 04:00 METAR CYCX 260400Z 00000KT 3SM BR FEW002 OVC053 15/15 A2958 RMK SF2SC6 DA766FT
                 SLP017 =
2018-05-26 03:00 METAR CYCX 260300Z 00000KT 5SM BR OVC068 15/15 A2956 RMK AC8 DA842FT SLP013 =
2018-05-26 02:00 METAR CYCX 260200Z 13003KT 090V150 7SM BKN042 BKN090 15/15 A2955 RMK SC5AC2
                 DA840FT SLP009 =
2018-05-26 01:17 METAR CYCX 260117Z 19003KT 170V250 8SM -SHRA SCT030CB OVC060 15/15 A2958 RMK
                 CB3SC5 DA870FT CB OVRHD MOVG SE SLP019 =
2018-05-26 01:00 METAR CYCX 260100Z 22003KT 090V230 10SM -TSRA SCT039CB OVC058 15/15 A2959 RMK
                 CB3SC5 DA845FT CB OVRHD MOVG SE OCNL DIST LTGCG LTNG DTCTRS REP STRIKES 9 NM N
                 PCPN VRY LGT SLP022 =
2018-05-26 00:42 METAR CYCX 260042Z 32008KT 10SM -TSRA SCT036CB OVC051 15/15 A2959 RMK CB3SC5
                 DA857FT CB N MOVG SE OCNL DIST LTGCG LTNG DTCTRS REP STRIKES 9 NM N PRESRR
                 SLP022 =
2018-05-26 00:21 METAR CYCX 260021Z 16005KT 10SM TS FEW023CB BKN051 OVC082 16/15 A2954 RMK
                 CB2SC3AS2 DA921FT CB NW QUAD MOVG SE OCNL DIST LTGCG LTNG DTCTRS REP STRIKES 12
                 NM NW SLP005 =
2018-05-26 00:00 METAR CYCX 260000Z 14004KT 8SM -SHRA SCT021CB BKN082 OVC220 16/15 A2954 RMK
                 CB4AC2CS2 DA927FT CB EMBD MOVG SE OCNL DIST LTGCG LTNG DTCTRS REP STRIKES 35 NM
                 NW SLP005 =
2018-05-25 23:47 METAR CYCX 252347Z 00000KT 5SM -SHRA BR BKN023CB OVC082 16/15 A2955 RMK CB6AC2
                 DA974FT CB EMBD MOVG SE OCNL DIST LTGCG LTNG DTCTRS REP STRIKES 30 NM NW SLP009
                 =
2018-05-25 23:00 METAR CYCX 252300Z 10006KT 12SM -TSRA BKN023CB BKN082 BKN220 16/15 A2953 RMK
                 CB5AC2CI1 DA1041FT CB SE MOVG E OCNL DIST LTGCG SLP002 =
2018-05-25 22:49 METAR CYCX 252249Z 07005KT 010V100 5SM -TSRA BR BKN023CB OVC082 17/15 A2956 RMK
                 CB7AC1 DA1041FT CB OVRHD MOVG SE OCNL DIST LTGCG N PRESRR SLP011 =
2018-05-25 22:17 METAR CYCX 252217Z 03004KT 010V080 8SM -TSRA BKN047CB OVC082 20/14 A2953 RMK
                 CB6AC2 DA1427FT CB N MOVG SE OCNL LTGCG N PRESRR SLP001 =
2018-05-25 22:09 METAR CYCX 252209Z 06004KT 010V090 8SM -SHRA BKN054CB BKN082 21/13 A2951 RMK
                 CB5AC2 DA1513FT CB NW MOVG SE PRESRR SLP993 =
2018-05-25 22:00 METAR CYCX 252200Z 07005KT 020V100 10SM SCT058CB BKN082 BKN220 21/13 A2949 RMK
                 CB4AC2CI1 DA1588FT CB NW MOVG SE SLP987 =
2018-05-25 21:37 METAR CYCX 252137Z 03006KT 360V060 12SM FEW068CB BKN088 BKN220 22/14 A2949 RMK
                 CB2AC3CI2 DA1753FT CB NW QUAD MOVG SE SLP988 =
2018-05-25 21:00 METAR CYCX 252100Z 10002KT 15SM FEW067 SCT097 BKN220 25/14 A2950 RMK AC2ACC2CI2
                 DA2009FT ACC N QUAD MOVG SE SLP990 =
2018-05-25 20:00 METAR CYCX 252000Z 34002KT 15SM SCT067 BKN095 BKN220 26/13 A2950 RMK AC4ACC2CI2
                 DA2127FT ACC NE QUAD MOVG SE SLP992 =
2018-05-25 19:00 METAR CYCX 251900Z 24006KT 210V270 15SM SCT079 BKN099 25/12 A2952 RMK AC4ACC2
                 DA1980FT ACC N QUAD MOVG SE SLP998 =
2018-05-25 18:00 METAR CYCX 251800Z 34005KT 260V360 15SM BKN100 BKN120 23/12 A2955 RMK AC5AC2
                 DA1721FT SLP009 =
2018-05-25 17:00 METAR CYCX 251700Z 25012KT 12SM FEW015 BKN110 BKN130 23/12 A2957 RMK SC1AC4AC1
                 DA1669FT SLP015 =
2018-05-25 16:00 METAR CYCX 251600Z 20011G16KT 12SM FEW011 BKN100 BKN120 19/12 A2959 RMK
                 SC1AC5AC2 DA1252FT SC TR ACC ASOCTD SLP022 =
2018-05-25 15:27 METAR CYCX 251527Z 19010KT 12SM FEW011 BKN100 BKN120 17/12 A2961 RMK SC1AC5AC2
                 DA974FT PRESFR SC TR VIRGA DIST NE SLP028 =
2018-05-25 15:00 METAR CYCX 251500Z 20007KT 12SM -SHRA FEW011 BKN100 16/11 A2965 RMK SC1AC6
                 DA743FT PCPN VRY LGT ACC ASOCTD VIRGA DIST NE SLP041 =
2018-05-25 14:00 METAR CYCX 251400Z 29004KT 170V330 12SM FEW006 FEW011 BKN100 14/10 A2968 RMK
                 SF1SC2AC4 DA467FT SF TR SLP051 =
2018-05-25 13:38 METAR CYCX 251338Z 25006KT 180V260 12SM FEW006 SCT011 BKN100 14/11 A2966 RMK
                 SF1SC4AC2 DA492FT SLP046 =
2018-05-25 13:00 METAR CYCX 251300Z 24007KT 12SM SCT006 BKN011 BKN100 12/10 A2968 RMK SF3SC3AC1
                 DA270FT SLP052 =
2018-05-25 12:00 METAR CYCX 251200Z 19008KT 12SM BKN006 BKN060 BKN100 11/10 A2970 RMK SF5SC1AC2
                 DA144FT SLP059 =
2018-05-25 11:52 METAR CYCX 251152Z 17008KT 12SM BKN007 BKN060 BKN100 10/09 A2971 RMK SF5SC1AC2
                 DA3FT SLP064 =
2018-05-25 11:00 METAR CYCX 251100Z 12002KT 12SM FEW005 BKN060 OVC100 09/09 A2973 RMK SF1SC5AC2
                 DA-172FT SLP070 =
2018-05-25 10:35 METAR CYCX 251035Z 14003KT 12SM FEW007 BKN040 OVC100 08/08 A2973 RMK SF1SC5AC3
                 DA-251FT SLP070 =

Support USWX by starting your Amazon purchase here.